sensor_id;sensor_type;location;lat;lon;timestamp;P1;durP1;ratioP1;P2;durP2;ratioP2
51792;SDS011;37850;53.178;6.376;2022-09-30T00:01:37;8.85;;;3.55;;
51792;SDS011;37850;53.178;6.376;2022-09-30T00:04:04;6.63;;;3.10;;
51792;SDS011;37850;53.178;6.376;2022-09-30T00:06:31;6.68;;;3.35;;
51792;SDS011;37850;53.178;6.376;2022-09-30T00:08:59;6.93;;;3.03;;
51792;SDS011;37850;53.178;6.376;2022-09-30T00:11:30;6.57;;;3.30;;
51792;SDS011;37850;53.178;6.376;2022-09-30T00:13:58;6.22;;;3.17;;
51792;SDS011;37850;53.178;6.376;2022-09-30T00:16:26;4.72;;;2.97;;
51792;SDS011;37850;53.178;6.376;2022-09-30T00:18:55;5.75;;;3.33;;
51792;SDS011;37850;53.178;6.376;2022-09-30T00:21:22;6.40;;;3.20;;
51792;SDS011;37850;53.178;6.376;2022-09-30T00:23:49;8.40;;;3.38;;
51792;SDS011;37850;53.178;6.376;2022-09-30T00:26:16;6.47;;;3.13;;
51792;SDS011;37850;53.178;6.376;2022-09-30T00:28:44;5.35;;;3.33;;
51792;SDS011;37850;53.178;6.376;2022-09-30T00:31:14;7.95;;;3.38;;
51792;SDS011;37850;53.178;6.376;2022-09-30T00:33:42;5.32;;;2.90;;
51792;SDS011;37850;53.178;6.376;2022-09-30T00:36:08;5.55;;;2.88;;
51792;SDS011;37850;53.178;6.376;2022-09-30T00:38:35;5.80;;;3.35;;
51792;SDS011;37850;53.178;6.376;2022-09-30T00:41:01;6.60;;;2.85;;
51792;SDS011;37850;53.178;6.376;2022-09-30T00:46:05;7.95;;;3.05;;
51792;SDS011;37850;53.178;6.376;2022-09-30T00:48:51;7.50;;;3.20;;
51792;SDS011;37850;53.178;6.376;2022-09-30T00:51:38;7.00;;;3.05;;
51792;SDS011;37850;53.178;6.376;2022-09-30T00:54:09;5.18;;;2.75;;
51792;SDS011;37850;53.178;6.376;2022-09-30T00:56:39;6.00;;;2.90;;
51792;SDS011;37850;53.178;6.376;2022-09-30T00:59:11;6.60;;;2.92;;
51792;SDS011;37850;53.178;6.376;2022-09-30T01:01:40;6.35;;;2.60;;
51792;SDS011;37850;53.178;6.376;2022-09-30T01:06:54;5.65;;;3.00;;
51792;SDS011;37850;53.178;6.376;2022-09-30T01:09:25;10.07;;;3.08;;
51792;SDS011;37850;53.178;6.376;2022-09-30T01:11:52;5.50;;;2.75;;
51792;SDS011;37850;53.178;6.376;2022-09-30T01:14:19;5.35;;;2.72;;
51792;SDS011;37850;53.178;6.376;2022-09-30T01:28:09;4.70;;;2.63;;
51792;SDS011;37850;53.178;6.376;2022-09-30T01:33:34;5.18;;;2.95;;
51792;SDS011;37850;53.178;6.376;2022-09-30T01:44:40;5.80;;;2.95;;
51792;SDS011;37850;53.178;6.376;2022-09-30T01:47:18;10.45;;;2.90;;
51792;SDS011;37850;53.178;6.376;2022-09-30T01:49:50;5.95;;;2.40;;
51792;SDS011;37850;53.178;6.376;2022-09-30T01:52:27;4.60;;;2.55;;
51792;SDS011;37850;53.178;6.376;2022-09-30T01:57:53;4.63;;;2.40;;
51792;SDS011;37850;53.178;6.376;2022-09-30T02:00:31;4.88;;;2.50;;
51792;SDS011;37850;53.178;6.376;2022-09-30T02:03:04;5.15;;;2.47;;
51792;SDS011;37850;53.178;6.376;2022-09-30T02:08:10;5.60;;;2.50;;
51792;SDS011;37850;53.178;6.376;2022-09-30T02:10:44;5.05;;;2.55;;
51792;SDS011;37850;53.178;6.376;2022-09-30T02:13:22;5.07;;;2.33;;
51792;SDS011;37850;53.178;6.376;2022-09-30T02:15:55;5.03;;;2.70;;
51792;SDS011;37850;53.178;6.376;2022-09-30T02:18:28;4.60;;;2.40;;
51792;SDS011;37850;53.178;6.376;2022-09-30T02:20:56;6.80;;;2.38;;
51792;SDS011;37850;53.178;6.376;2022-09-30T02:23:26;8.45;;;2.40;;
51792;SDS011;37850;53.178;6.376;2022-09-30T02:25:58;4.55;;;2.70;;
51792;SDS011;37850;53.178;6.376;2022-09-30T02:29:08;6.20;;;2.25;;
51792;SDS011;37850;53.178;6.376;2022-09-30T02:31:41;4.13;;;2.40;;
51792;SDS011;37850;53.178;6.376;2022-09-30T02:34:11;4.05;;;2.13;;
51792;SDS011;37850;53.178;6.376;2022-09-30T02:36:45;3.75;;;2.00;;
51792;SDS011;37850;53.178;6.376;2022-09-30T02:42:31;4.43;;;2.08;;
51792;SDS011;37850;53.178;6.376;2022-09-30T02:45:02;3.80;;;2.00;;
51792;SDS011;37850;53.178;6.376;2022-09-30T02:47:55;4.70;;;2.40;;
51792;SDS011;37850;53.178;6.376;2022-09-30T02:50:47;4.82;;;2.30;;
51792;SDS011;37850;53.178;6.376;2022-09-30T02:53:49;4.30;;;2.40;;
51792;SDS011;37850;53.178;6.376;2022-09-30T02:56:28;4.43;;;2.22;;
51792;SDS011;37850;53.178;6.376;2022-09-30T02:58:58;3.80;;;2.20;;
51792;SDS011;37850;53.178;6.376;2022-09-30T03:01:24;5.55;;;2.22;;
51792;SDS011;37850;53.178;6.376;2022-09-30T03:03:57;4.40;;;2.30;;
51792;SDS011;37850;53.178;6.376;2022-09-30T03:06:31;4.60;;;2.30;;
51792;SDS011;37850;53.178;6.376;2022-09-30T03:08:58;12.57;;;2.60;;
51792;SDS011;37850;53.178;6.376;2022-09-30T03:11:25;4.95;;;2.50;;
51792;SDS011;37850;53.178;6.376;2022-09-30T03:20:12;6.45;;;2.40;;
51792;SDS011;37850;53.178;6.376;2022-09-30T03:25:40;11.52;;;3.08;;
51792;SDS011;37850;53.178;6.376;2022-09-30T03:31:10;5.50;;;2.85;;
51792;SDS011;37850;53.178;6.376;2022-09-30T03:33:49;5.15;;;2.17;;
51792;SDS011;37850;53.178;6.376;2022-09-30T03:36:27;5.00;;;2.20;;
51792;SDS011;37850;53.178;6.376;2022-09-30T03:39:06;5.82;;;2.70;;
51792;SDS011;37850;53.178;6.376;2022-09-30T03:44:44;5.90;;;2.20;;
51792;SDS011;37850;53.178;6.376;2022-09-30T03:47:24;5.95;;;2.70;;
51792;SDS011;37850;53.178;6.376;2022-09-30T03:49:52;5.57;;;2.25;;
51792;SDS011;37850;53.178;6.376;2022-09-30T03:52:24;5.30;;;2.50;;
51792;SDS011;37850;53.178;6.376;2022-09-30T03:54:55;4.57;;;2.30;;
51792;SDS011;37850;53.178;6.376;2022-09-30T03:57:27;4.10;;;2.03;;
51792;SDS011;37850;53.178;6.376;2022-09-30T03:59:54;5.28;;;2.30;;
51792;SDS011;37850;53.178;6.376;2022-09-30T04:02:21;5.45;;;2.65;;
51792;SDS011;37850;53.178;6.376;2022-09-30T04:04:48;4.22;;;2.15;;
51792;SDS011;37850;53.178;6.376;2022-09-30T04:07:13;5.28;;;2.45;;
51792;SDS011;37850;53.178;6.376;2022-09-30T04:09:39;6.57;;;2.75;;
51792;SDS011;37850;53.178;6.376;2022-09-30T04:12:05;6.20;;;2.20;;
51792;SDS011;37850;53.178;6.376;2022-09-30T04:14:32;6.53;;;2.55;;
51792;SDS011;37850;53.178;6.376;2022-09-30T04:16:58;6.28;;;2.33;;
51792;SDS011;37850;53.178;6.376;2022-09-30T04:19:24;4.50;;;2.38;;
51792;SDS011;37850;53.178;6.376;2022-09-30T04:21:51;5.25;;;2.75;;
51792;SDS011;37850;53.178;6.376;2022-09-30T04:24:17;5.70;;;2.78;;
51792;SDS011;37850;53.178;6.376;2022-09-30T04:26:44;4.95;;;2.47;;
51792;SDS011;37850;53.178;6.376;2022-09-30T04:29:10;6.43;;;2.70;;
51792;SDS011;37850;53.178;6.376;2022-09-30T04:31:36;8.30;;;3.00;;
51792;SDS011;37850;53.178;6.376;2022-09-30T04:34:02;6.75;;;3.72;;
51792;SDS011;37850;53.178;6.376;2022-09-30T04:36:27;5.38;;;2.50;;
51792;SDS011;37850;53.178;6.376;2022-09-30T04:38:53;5.90;;;2.92;;
51792;SDS011;37850;53.178;6.376;2022-09-30T04:41:19;5.68;;;2.78;;
51792;SDS011;37850;53.178;6.376;2022-09-30T04:43:46;6.32;;;3.55;;
51792;SDS011;37850;53.178;6.376;2022-09-30T04:46:13;7.20;;;3.17;;
51792;SDS011;37850;53.178;6.376;2022-09-30T04:48:39;5.45;;;2.67;;
51792;SDS011;37850;53.178;6.376;2022-09-30T04:51:16;6.78;;;3.40;;
51792;SDS011;37850;53.178;6.376;2022-09-30T04:53:44;6.80;;;3.20;;
51792;SDS011;37850;53.178;6.376;2022-09-30T04:56:10;6.88;;;3.08;;
51792;SDS011;37850;53.178;6.376;2022-09-30T04:58:37;7.53;;;3.03;;
51792;SDS011;37850;53.178;6.376;2022-09-30T05:01:03;6.57;;;3.58;;
51792;SDS011;37850;53.178;6.376;2022-09-30T05:03:32;5.60;;;3.10;;
51792;SDS011;37850;53.178;6.376;2022-09-30T05:05:58;7.47;;;3.45;;
51792;SDS011;37850;53.178;6.376;2022-09-30T05:08:24;7.60;;;3.58;;
51792;SDS011;37850;53.178;6.376;2022-09-30T05:10:53;7.68;;;2.83;;
51792;SDS011;37850;53.178;6.376;2022-09-30T05:13:33;5.75;;;3.17;;
51792;SDS011;37850;53.178;6.376;2022-09-30T05:16:01;7.50;;;4.10;;
51792;SDS011;37850;53.178;6.376;2022-09-30T05:18:27;7.53;;;3.47;;
51792;SDS011;37850;53.178;6.376;2022-09-30T05:20:54;6.95;;;3.10;;
51792;SDS011;37850;53.178;6.376;2022-09-30T05:23:24;9.90;;;4.35;;
51792;SDS011;37850;53.178;6.376;2022-09-30T05:25:50;10.80;;;3.50;;
51792;SDS011;37850;53.178;6.376;2022-09-30T05:28:17;8.45;;;3.75;;
51792;SDS011;37850;53.178;6.376;2022-09-30T05:30:43;8.02;;;3.97;;
51792;SDS011;37850;53.178;6.376;2022-09-30T05:33:09;7.07;;;3.35;;
51792;SDS011;37850;53.178;6.376;2022-09-30T05:35:37;7.53;;;3.63;;
51792;SDS011;37850;53.178;6.376;2022-09-30T05:38:07;5.93;;;3.33;;
51792;SDS011;37850;53.178;6.376;2022-09-30T05:40:37;6.25;;;3.35;;
51792;SDS011;37850;53.178;6.376;2022-09-30T05:43:03;6.32;;;3.67;;
51792;SDS011;37850;53.178;6.376;2022-09-30T05:45:33;7.35;;;3.58;;
51792;SDS011;37850;53.178;6.376;2022-09-30T05:47:59;5.68;;;3.13;;
51792;SDS011;37850;53.178;6.376;2022-09-30T05:50:25;6.70;;;3.78;;
51792;SDS011;37850;53.178;6.376;2022-09-30T05:52:51;8.45;;;3.92;;
51792;SDS011;37850;53.178;6.376;2022-09-30T05:55:18;9.98;;;3.90;;
51792;SDS011;37850;53.178;6.376;2022-09-30T05:57:46;6.88;;;3.75;;
51792;SDS011;37850;53.178;6.376;2022-09-30T06:00:13;7.60;;;3.83;;
51792;SDS011;37850;53.178;6.376;2022-09-30T06:02:40;7.03;;;3.70;;
51792;SDS011;37850;53.178;6.376;2022-09-30T06:05:09;6.88;;;3.70;;
51792;SDS011;37850;53.178;6.376;2022-09-30T06:07:36;6.82;;;3.95;;
51792;SDS011;37850;53.178;6.376;2022-09-30T06:10:03;6.70;;;3.88;;
51792;SDS011;37850;53.178;6.376;2022-09-30T06:12:36;6.63;;;3.85;;
51792;SDS011;37850;53.178;6.376;2022-09-30T06:15:03;7.50;;;3.78;;
51792;SDS011;37850;53.178;6.376;2022-09-30T06:17:32;9.02;;;4.47;;
51792;SDS011;37850;53.178;6.376;2022-09-30T06:19:58;7.47;;;4.30;;
51792;SDS011;37850;53.178;6.376;2022-09-30T06:22:25;6.78;;;3.95;;
51792;SDS011;37850;53.178;6.376;2022-09-30T06:24:51;7.05;;;4.10;;
51792;SDS011;37850;53.178;6.376;2022-09-30T06:27:16;7.80;;;3.80;;
51792;SDS011;37850;53.178;6.376;2022-09-30T06:29:43;6.43;;;3.75;;
51792;SDS011;37850;53.178;6.376;2022-09-30T06:32:08;6.20;;;3.60;;
51792;SDS011;37850;53.178;6.376;2022-09-30T06:34:35;6.82;;;4.15;;
51792;SDS011;37850;53.178;6.376;2022-09-30T06:37:00;8.95;;;3.97;;
51792;SDS011;37850;53.178;6.376;2022-09-30T06:39:26;6.22;;;3.60;;
51792;SDS011;37850;53.178;6.376;2022-09-30T06:41:53;7.88;;;4.00;;
51792;SDS011;37850;53.178;6.376;2022-09-30T06:44:20;8.68;;;3.70;;
51792;SDS011;37850;53.178;6.376;2022-09-30T06:46:46;8.02;;;3.40;;
51792;SDS011;37850;53.178;6.376;2022-09-30T06:49:11;6.00;;;3.53;;
51792;SDS011;37850;53.178;6.376;2022-09-30T06:51:37;8.90;;;4.03;;
51792;SDS011;37850;53.178;6.376;2022-09-30T06:54:03;6.30;;;3.65;;
51792;SDS011;37850;53.178;6.376;2022-09-30T06:56:28;7.90;;;4.60;;
51792;SDS011;37850;53.178;6.376;2022-09-30T06:58:55;7.63;;;4.30;;
51792;SDS011;37850;53.178;6.376;2022-09-30T07:01:21;5.95;;;3.42;;
51792;SDS011;37850;53.178;6.376;2022-09-30T07:03:48;6.10;;;3.60;;
51792;SDS011;37850;53.178;6.376;2022-09-30T07:06:20;6.95;;;3.38;;
51792;SDS011;37850;53.178;6.376;2022-09-30T07:08:46;5.53;;;2.92;;
51792;SDS011;37850;53.178;6.376;2022-09-30T07:11:12;4.90;;;2.53;;
51792;SDS011;37850;53.178;6.376;2022-09-30T07:13:41;5.00;;;2.55;;
51792;SDS011;37850;53.178;6.376;2022-09-30T07:16:14;5.45;;;2.53;;
51792;SDS011;37850;53.178;6.376;2022-09-30T07:18:42;5.22;;;2.75;;
51792;SDS011;37850;53.178;6.376;2022-09-30T07:21:09;5.15;;;2.65;;
51792;SDS011;37850;53.178;6.376;2022-09-30T07:23:37;5.88;;;2.50;;
51792;SDS011;37850;53.178;6.376;2022-09-30T07:26:09;5.47;;;2.60;;
51792;SDS011;37850;53.178;6.376;2022-09-30T07:28:36;8.35;;;2.95;;
51792;SDS011;37850;53.178;6.376;2022-09-30T07:31:08;5.95;;;2.22;;
51792;SDS011;37850;53.178;6.376;2022-09-30T07:33:36;6.05;;;2.80;;
51792;SDS011;37850;53.178;6.376;2022-09-30T07:36:03;5.60;;;2.42;;
51792;SDS011;37850;53.178;6.376;2022-09-30T07:38:32;6.13;;;2.88;;
51792;SDS011;37850;53.178;6.376;2022-09-30T07:43:41;5.38;;;2.47;;
51792;SDS011;37850;53.178;6.376;2022-09-30T07:46:15;5.65;;;2.60;;
51792;SDS011;37850;53.178;6.376;2022-09-30T07:48:45;4.97;;;2.65;;
51792;SDS011;37850;53.178;6.376;2022-09-30T07:51:18;6.43;;;2.72;;
51792;SDS011;37850;53.178;6.376;2022-09-30T07:53:48;6.05;;;3.05;;
51792;SDS011;37850;53.178;6.376;2022-09-30T07:56:16;5.22;;;2.67;;
51792;SDS011;37850;53.178;6.376;2022-09-30T07:58:43;7.07;;;2.95;;
51792;SDS011;37850;53.178;6.376;2022-09-30T08:01:09;5.75;;;3.15;;
51792;SDS011;37850;53.178;6.376;2022-09-30T08:03:36;7.82;;;3.50;;
51792;SDS011;37850;53.178;6.376;2022-09-30T08:06:07;5.10;;;2.88;;
51792;SDS011;37850;53.178;6.376;2022-09-30T08:08:35;7.95;;;3.40;;
51792;SDS011;37850;53.178;6.376;2022-09-30T08:11:01;7.63;;;3.53;;
51792;SDS011;37850;53.178;6.376;2022-09-30T08:13:28;6.78;;;3.58;;
51792;SDS011;37850;53.178;6.376;2022-09-30T08:15:54;7.05;;;4.05;;
51792;SDS011;37850;53.178;6.376;2022-09-30T08:18:20;8.80;;;4.85;;
51792;SDS011;37850;53.178;6.376;2022-09-30T08:20:46;9.18;;;5.07;;
51792;SDS011;37850;53.178;6.376;2022-09-30T08:23:12;9.85;;;4.82;;
51792;SDS011;37850;53.178;6.376;2022-09-30T08:25:38;8.45;;;4.57;;
51792;SDS011;37850;53.178;6.376;2022-09-30T08:28:04;7.53;;;4.43;;
51792;SDS011;37850;53.178;6.376;2022-09-30T08:30:30;10.18;;;5.30;;
51792;SDS011;37850;53.178;6.376;2022-09-30T08:33:02;8.88;;;4.85;;
51792;SDS011;37850;53.178;6.376;2022-09-30T08:35:28;9.02;;;4.65;;
51792;SDS011;37850;53.178;6.376;2022-09-30T08:37:53;7.88;;;4.97;;
51792;SDS011;37850;53.178;6.376;2022-09-30T08:40:26;8.85;;;4.43;;
51792;SDS011;37850;53.178;6.376;2022-09-30T08:43:08;7.68;;;4.50;;
51792;SDS011;37850;53.178;6.376;2022-09-30T08:48:38;8.10;;;5.13;;
51792;SDS011;37850;53.178;6.376;2022-09-30T08:54:13;8.55;;;4.97;;
51792;SDS011;37850;53.178;6.376;2022-09-30T08:56:43;12.38;;;5.47;;
51792;SDS011;37850;53.178;6.376;2022-09-30T09:02:03;9.18;;;5.82;;
51792;SDS011;37850;53.178;6.376;2022-09-30T09:04:36;9.30;;;6.07;;
51792;SDS011;37850;53.178;6.376;2022-09-30T09:10:10;9.40;;;5.55;;
51792;SDS011;37850;53.178;6.376;2022-09-30T09:12:56;8.48;;;5.28;;
51792;SDS011;37850;53.178;6.376;2022-09-30T09:21:20;7.60;;;4.53;;
51792;SDS011;37850;53.178;6.376;2022-09-30T09:24:10;8.65;;;4.82;;
51792;SDS011;37850;53.178;6.376;2022-09-30T09:26:42;8.80;;;5.00;;
51792;SDS011;37850;53.178;6.376;2022-09-30T09:32:15;9.18;;;5.30;;
51792;SDS011;37850;53.178;6.376;2022-09-30T09:34:42;8.27;;;5.20;;
51792;SDS011;37850;53.178;6.376;2022-09-30T09:43:27;9.52;;;5.43;;
51792;SDS011;37850;53.178;6.376;2022-09-30T09:48:42;8.30;;;5.35;;
51792;SDS011;37850;53.178;6.376;2022-09-30T09:51:14;9.93;;;5.25;;
51792;SDS011;37850;53.178;6.376;2022-09-30T09:53:56;7.00;;;4.25;;
51792;SDS011;37850;53.178;6.376;2022-09-30T09:56:26;8.25;;;4.80;;
51792;SDS011;37850;53.178;6.376;2022-09-30T09:59:13;7.35;;;4.95;;
51792;SDS011;37850;53.178;6.376;2022-09-30T10:01:42;7.10;;;4.60;;
51792;SDS011;37850;53.178;6.376;2022-09-30T10:04:14;7.85;;;5.00;;
51792;SDS011;37850;53.178;6.376;2022-09-30T10:09:31;8.63;;;5.50;;
51792;SDS011;37850;53.178;6.376;2022-09-30T10:17:17;8.93;;;6.00;;
51792;SDS011;37850;53.178;6.376;2022-09-30T10:19:49;7.55;;;5.22;;
51792;SDS011;37850;53.178;6.376;2022-09-30T10:22:27;8.75;;;5.70;;
51792;SDS011;37850;53.178;6.376;2022-09-30T10:27:49;9.43;;;5.90;;
51792;SDS011;37850;53.178;6.376;2022-09-30T10:30:30;8.68;;;5.72;;
51792;SDS011;37850;53.178;6.376;2022-09-30T10:33:15;9.10;;;5.90;;
51792;SDS011;37850;53.178;6.376;2022-09-30T10:35:59;9.65;;;6.25;;
51792;SDS011;37850;53.178;6.376;2022-09-30T10:38:27;7.05;;;4.90;;
51792;SDS011;37850;53.178;6.376;2022-09-30T10:40:56;7.75;;;4.65;;
51792;SDS011;37850;53.178;6.376;2022-09-30T10:43:27;9.52;;;4.50;;
51792;SDS011;37850;53.178;6.376;2022-09-30T10:46:01;9.75;;;4.40;;
51792;SDS011;37850;53.178;6.376;2022-09-30T10:48:30;7.47;;;3.72;;
51792;SDS011;37850;53.178;6.376;2022-09-30T10:50:59;6.25;;;4.00;;
51792;SDS011;37850;53.178;6.376;2022-09-30T10:53:27;6.28;;;3.45;;
51792;SDS011;37850;53.178;6.376;2022-09-30T10:55:56;6.75;;;3.50;;
51792;SDS011;37850;53.178;6.376;2022-09-30T11:00:48;4.88;;;2.65;;
51792;SDS011;37850;53.178;6.376;2022-09-30T11:03:21;5.72;;;2.50;;
51792;SDS011;37850;53.178;6.376;2022-09-30T11:05:54;7.72;;;2.58;;
51792;SDS011;37850;53.178;6.376;2022-09-30T11:08:36;7.57;;;2.70;;
51792;SDS011;37850;53.178;6.376;2022-09-30T11:16:46;4.97;;;2.45;;
51792;SDS011;37850;53.178;6.376;2022-09-30T11:24:41;5.57;;;2.40;;
51792;SDS011;37850;53.178;6.376;2022-09-30T11:35:26;7.93;;;2.95;;
51792;SDS011;37850;53.178;6.376;2022-09-30T11:41:16;3.10;;;1.67;;
51792;SDS011;37850;53.178;6.376;2022-09-30T11:57:30;4.80;;;1.90;;
51792;SDS011;37850;53.178;6.376;2022-09-30T12:00:04;3.45;;;1.70;;
51792;SDS011;37850;53.178;6.376;2022-09-30T12:02:39;3.92;;;2.08;;
51792;SDS011;37850;53.178;6.376;2022-09-30T12:14:08;5.35;;;1.73;;
51792;SDS011;37850;53.178;6.376;2022-09-30T12:16:38;3.90;;;1.83;;
51792;SDS011;37850;53.178;6.376;2022-09-30T12:19:12;5.75;;;1.65;;
51792;SDS011;37850;53.178;6.376;2022-09-30T12:21:43;6.30;;;1.80;;
51792;SDS011;37850;53.178;6.376;2022-09-30T12:24:26;6.10;;;1.45;;
51792;SDS011;37850;53.178;6.376;2022-09-30T12:27:02;3.10;;;1.30;;
51792;SDS011;37850;53.178;6.376;2022-09-30T12:29:36;3.55;;;1.50;;
51792;SDS011;37850;53.178;6.376;2022-09-30T12:50:02;5.75;;;1.90;;
51792;SDS011;37850;53.178;6.376;2022-09-30T12:52:32;3.60;;;2.00;;
51792;SDS011;37850;53.178;6.376;2022-09-30T12:55:07;4.50;;;1.80;;
51792;SDS011;37850;53.178;6.376;2022-09-30T12:57:44;4.13;;;1.77;;
51792;SDS011;37850;53.178;6.376;2022-09-30T13:00:24;5.25;;;1.80;;
51792;SDS011;37850;53.178;6.376;2022-09-30T13:03:01;3.70;;;1.77;;
51792;SDS011;37850;53.178;6.376;2022-09-30T13:08:19;5.97;;;2.10;;
51792;SDS011;37850;53.178;6.376;2022-09-30T13:10:57;5.93;;;2.03;;
51792;SDS011;37850;53.178;6.376;2022-09-30T13:13:25;5.25;;;1.90;;
51792;SDS011;37850;53.178;6.376;2022-09-30T13:15:53;4.60;;;1.65;;
51792;SDS011;37850;53.178;6.376;2022-09-30T13:23:42;6.18;;;2.15;;
51792;SDS011;37850;53.178;6.376;2022-09-30T13:28:47;5.05;;;2.30;;
51792;SDS011;37850;53.178;6.376;2022-09-30T13:31:17;5.53;;;1.90;;
51792;SDS011;37850;53.178;6.376;2022-09-30T13:42:44;5.57;;;2.38;;
51792;SDS011;37850;53.178;6.376;2022-09-30T13:50:33;5.65;;;2.30;;
51792;SDS011;37850;53.178;6.376;2022-09-30T13:53:24;5.35;;;2.53;;
51792;SDS011;37850;53.178;6.376;2022-09-30T13:55:57;4.85;;;2.35;;
51792;SDS011;37850;53.178;6.376;2022-09-30T14:04:04;4.45;;;2.20;;
51792;SDS011;37850;53.178;6.376;2022-09-30T14:09:18;4.93;;;2.33;;
51792;SDS011;37850;53.178;6.376;2022-09-30T14:23:02;6.13;;;3.35;;
51792;SDS011;37850;53.178;6.376;2022-09-30T14:25:32;7.18;;;3.10;;
51792;SDS011;37850;53.178;6.376;2022-09-30T14:28:04;6.15;;;2.50;;
51792;SDS011;37850;53.178;6.376;2022-09-30T14:30:40;5.93;;;2.58;;
51792;SDS011;37850;53.178;6.376;2022-09-30T14:33:26;3.90;;;2.08;;
51792;SDS011;37850;53.178;6.376;2022-09-30T14:35:55;5.38;;;2.40;;
51792;SDS011;37850;53.178;6.376;2022-09-30T14:38:26;5.78;;;2.33;;
51792;SDS011;37850;53.178;6.376;2022-09-30T14:40:56;6.03;;;2.45;;
51792;SDS011;37850;53.178;6.376;2022-09-30T14:43:25;6.20;;;2.83;;
51792;SDS011;37850;53.178;6.376;2022-09-30T14:45:58;4.47;;;2.08;;
51792;SDS011;37850;53.178;6.376;2022-09-30T14:48:31;5.45;;;2.53;;
51792;SDS011;37850;53.178;6.376;2022-09-30T14:51:09;5.78;;;2.10;;
51792;SDS011;37850;53.178;6.376;2022-09-30T14:53:39;6.03;;;2.63;;
51792;SDS011;37850;53.178;6.376;2022-09-30T14:56:27;5.68;;;2.70;;
51792;SDS011;37850;53.178;6.376;2022-09-30T14:58:56;4.97;;;2.25;;
51792;SDS011;37850;53.178;6.376;2022-09-30T15:01:23;4.50;;;2.15;;
51792;SDS011;37850;53.178;6.376;2022-09-30T15:03:54;5.22;;;2.15;;
51792;SDS011;37850;53.178;6.376;2022-09-30T15:06:31;5.15;;;1.90;;
51792;SDS011;37850;53.178;6.376;2022-09-30T15:09:06;4.30;;;2.30;;
51792;SDS011;37850;53.178;6.376;2022-09-30T15:11:46;5.13;;;2.33;;
51792;SDS011;37850;53.178;6.376;2022-09-30T15:14:15;7.93;;;2.30;;
51792;SDS011;37850;53.178;6.376;2022-09-30T15:16:44;4.03;;;1.80;;
51792;SDS011;37850;53.178;6.376;2022-09-30T15:19:24;5.85;;;1.80;;
51792;SDS011;37850;53.178;6.376;2022-09-30T15:21:52;5.20;;;2.00;;
51792;SDS011;37850;53.178;6.376;2022-09-30T15:24:20;6.32;;;2.20;;
51792;SDS011;37850;53.178;6.376;2022-09-30T15:26:48;4.68;;;1.92;;
51792;SDS011;37850;53.178;6.376;2022-09-30T15:29:16;4.28;;;1.90;;
51792;SDS011;37850;53.178;6.376;2022-09-30T15:31:45;6.00;;;2.08;;
51792;SDS011;37850;53.178;6.376;2022-09-30T15:34:32;5.10;;;1.83;;
51792;SDS011;37850;53.178;6.376;2022-09-30T15:37:01;4.88;;;1.95;;
51792;SDS011;37850;53.178;6.376;2022-09-30T15:39:31;5.07;;;1.65;;
51792;SDS011;37850;53.178;6.376;2022-09-30T15:45:03;10.43;;;2.33;;
51792;SDS011;37850;53.178;6.376;2022-09-30T15:47:52;20.60;;;8.75;;
51792;SDS011;37850;53.178;6.376;2022-09-30T15:50:41;8.27;;;2.60;;
51792;SDS011;37850;53.178;6.376;2022-09-30T15:53:18;9.35;;;2.17;;
51792;SDS011;37850;53.178;6.376;2022-09-30T15:55:49;13.02;;;2.10;;
51792;SDS011;37850;53.178;6.376;2022-09-30T16:03:57;3.83;;;2.00;;
51792;SDS011;37850;53.178;6.376;2022-09-30T16:06:30;9.85;;;2.38;;
51792;SDS011;37850;53.178;6.376;2022-09-30T16:09:02;5.03;;;2.22;;
51792;SDS011;37850;53.178;6.376;2022-09-30T16:11:42;5.22;;;1.80;;
51792;SDS011;37850;53.178;6.376;2022-09-30T16:14:16;4.25;;;2.13;;
51792;SDS011;37850;53.178;6.376;2022-09-30T16:16:51;6.03;;;2.55;;
51792;SDS011;37850;53.178;6.376;2022-09-30T16:19:19;6.30;;;2.75;;
51792;SDS011;37850;53.178;6.376;2022-09-30T16:21:49;7.70;;;3.20;;
51792;SDS011;37850;53.178;6.376;2022-09-30T16:26:45;5.90;;;2.90;;
51792;SDS011;37850;53.178;6.376;2022-09-30T16:29:11;5.97;;;2.90;;
51792;SDS011;37850;53.178;6.376;2022-09-30T16:31:37;7.30;;;2.95;;
51792;SDS011;37850;53.178;6.376;2022-09-30T16:34:03;5.43;;;2.15;;
51792;SDS011;37850;53.178;6.376;2022-09-30T16:36:32;5.22;;;2.40;;
51792;SDS011;37850;53.178;6.376;2022-09-30T16:38:57;4.47;;;2.17;;
51792;SDS011;37850;53.178;6.376;2022-09-30T16:41:24;4.05;;;1.80;;
51792;SDS011;37850;53.178;6.376;2022-09-30T16:43:50;7.10;;;2.22;;
51792;SDS011;37850;53.178;6.376;2022-09-30T16:46:15;4.75;;;1.90;;
51792;SDS011;37850;53.178;6.376;2022-09-30T16:48:41;4.72;;;2.10;;
51792;SDS011;37850;53.178;6.376;2022-09-30T16:51:15;8.60;;;2.38;;
51792;SDS011;37850;53.178;6.376;2022-09-30T16:53:44;5.15;;;2.13;;
51792;SDS011;37850;53.178;6.376;2022-09-30T16:56:15;4.63;;;2.10;;
51792;SDS011;37850;53.178;6.376;2022-09-30T16:58:43;4.78;;;2.35;;
51792;SDS011;37850;53.178;6.376;2022-09-30T17:01:16;5.10;;;2.03;;
51792;SDS011;37850;53.178;6.376;2022-09-30T17:03:44;4.60;;;2.20;;
51792;SDS011;37850;53.178;6.376;2022-09-30T17:06:11;4.68;;;2.20;;
51792;SDS011;37850;53.178;6.376;2022-09-30T17:08:37;6.38;;;2.20;;
51792;SDS011;37850;53.178;6.376;2022-09-30T17:11:03;7.45;;;2.63;;
51792;SDS011;37850;53.178;6.376;2022-09-30T17:13:33;7.28;;;2.50;;
51792;SDS011;37850;53.178;6.376;2022-09-30T17:16:02;6.57;;;3.03;;
51792;SDS011;37850;53.178;6.376;2022-09-30T17:18:28;8.35;;;2.78;;
51792;SDS011;37850;53.178;6.376;2022-09-30T17:20:54;5.28;;;2.80;;
51792;SDS011;37850;53.178;6.376;2022-09-30T17:23:21;4.50;;;2.33;;
51792;SDS011;37850;53.178;6.376;2022-09-30T17:25:47;6.95;;;2.50;;
51792;SDS011;37850;53.178;6.376;2022-09-30T17:28:14;6.47;;;2.42;;
51792;SDS011;37850;53.178;6.376;2022-09-30T17:30:40;6.50;;;2.72;;
51792;SDS011;37850;53.178;6.376;2022-09-30T17:33:08;5.07;;;2.38;;
51792;SDS011;37850;53.178;6.376;2022-09-30T17:35:35;4.68;;;2.45;;
51792;SDS011;37850;53.178;6.376;2022-09-30T17:38:09;6.18;;;2.53;;
51792;SDS011;37850;53.178;6.376;2022-09-30T17:40:36;6.13;;;2.90;;
51792;SDS011;37850;53.178;6.376;2022-09-30T17:43:21;5.97;;;2.95;;
51792;SDS011;37850;53.178;6.376;2022-09-30T17:45:47;6.40;;;3.20;;
51792;SDS011;37850;53.178;6.376;2022-09-30T17:48:15;7.15;;;3.67;;
51792;SDS011;37850;53.178;6.376;2022-09-30T17:50:43;5.78;;;2.83;;
51792;SDS011;37850;53.178;6.376;2022-09-30T17:53:10;8.93;;;3.17;;
51792;SDS011;37850;53.178;6.376;2022-09-30T17:55:42;8.55;;;3.50;;
51792;SDS011;37850;53.178;6.376;2022-09-30T17:58:11;7.07;;;3.35;;
51792;SDS011;37850;53.178;6.376;2022-09-30T18:00:37;8.02;;;3.38;;
51792;SDS011;37850;53.178;6.376;2022-09-30T18:03:03;5.45;;;3.20;;
51792;SDS011;37850;53.178;6.376;2022-09-30T18:05:34;6.15;;;3.08;;
51792;SDS011;37850;53.178;6.376;2022-09-30T18:08:00;6.65;;;3.25;;
51792;SDS011;37850;53.178;6.376;2022-09-30T18:10:27;5.80;;;3.15;;
51792;SDS011;37850;53.178;6.376;2022-09-30T18:12:56;6.35;;;2.90;;
51792;SDS011;37850;53.178;6.376;2022-09-30T18:15:23;5.20;;;2.80;;
51792;SDS011;37850;53.178;6.376;2022-09-30T18:17:51;4.55;;;2.63;;
51792;SDS011;37850;53.178;6.376;2022-09-30T18:20:16;5.35;;;2.92;;
51792;SDS011;37850;53.178;6.376;2022-09-30T18:22:42;6.15;;;3.00;;
51792;SDS011;37850;53.178;6.376;2022-09-30T18:25:08;5.70;;;3.10;;
51792;SDS011;37850;53.178;6.376;2022-09-30T18:27:51;6.68;;;2.80;;
51792;SDS011;37850;53.178;6.376;2022-09-30T18:30:20;7.50;;;3.22;;
51792;SDS011;37850;53.178;6.376;2022-09-30T18:32:47;8.30;;;3.42;;
51792;SDS011;37850;53.178;6.376;2022-09-30T18:35:14;10.00;;;4.32;;
51792;SDS011;37850;53.178;6.376;2022-09-30T18:37:42;6.38;;;3.63;;
51792;SDS011;37850;53.178;6.376;2022-09-30T18:40:11;6.15;;;3.30;;
51792;SDS011;37850;53.178;6.376;2022-09-30T18:42:40;6.05;;;3.33;;
51792;SDS011;37850;53.178;6.376;2022-09-30T18:45:08;6.82;;;3.50;;